Time;durP1;ratioP1;P1;durP2;ratioP2;P2;SDS_P1;SDS_P2;PMS_P1;PMS_P2;Temp;Humidity;BMP_temperature;BMP_pressure;BME280_temperature;BME280_humidity;BME280_pressure;Samples;Min_cycle;Max_cycle;Signal;HPM_P1;HPM_P2
2023/07/07 00:00:21;;;;;;;6.93;4.95;;;;;;;15.56;65.55;101383.16;5000199;28;20078;-61
2023/07/07 00:02:48;;;;;;;9.10;5.15;;;;;;;15.52;66.16;101380.81;4998423;28;20149;-61
2023/07/07 00:05:16;;;;;;;10.02;6.68;;;;;;;15.49;66.42;101384.56;4996693;28;20048;-61
2023/07/07 00:07:44;;;;;;;9.73;5.43;;;;;;;15.48;66.70;101388.13;4976233;28;20050;-62
2023/07/07 00:10:11;;;;;;;15.68;6.28;;;;;;;15.42;67.01;101389.41;4998468;28;20149;-62
2023/07/07 00:12:38;;;;;;;11.23;6.40;;;;;;;15.37;67.52;101386.22;4970554;28;20129;-60
2023/07/07 00:15:06;;;;;;;11.98;6.43;;;;;;;15.35;67.87;101392.56;4985373;28;20136;-61
2023/07/07 00:17:34;;;;;;;9.10;5.65;;;;;;;15.31;67.70;101391.06;4984313;28;20055;-62
2023/07/07 00:20:07;;;;;;;12.60;6.05;;;;;;;15.28;68.38;101384.19;4995577;28;20540;-59
2023/07/07 00:22:35;;;;;;;8.25;5.40;;;;;;;15.23;67.97;101386.28;4986194;28;20400;-62
2023/07/07 00:25:03;;;;;;;9.18;5.20;;;;;;;15.19;67.83;101382.97;4979408;28;20456;-61
2023/07/07 00:27:30;;;;;;;9.10;5.28;;;;;;;15.16;68.60;101385.81;4992825;28;20096;-61
2023/07/07 00:29:58;;;;;;;11.80;5.05;;;;;;;15.13;68.43;101378.09;4972333;28;20050;-58
2023/07/07 00:32:26;;;;;;;7.78;4.93;;;;;;;15.09;68.72;101381.06;4988164;28;20066;-61
2023/07/07 00:34:54;;;;;;;7.05;4.57;;;;;;;15.08;68.48;101392.59;4984429;28;20042;-59
2023/07/07 00:37:21;;;;;;;9.15;5.57;;;;;;;15.03;68.54;101390.25;4989089;28;21284;-60
2023/07/07 00:39:48;;;;;;;11.65;5.15;;;;;;;15.01;68.42;101392.16;4984881;28;20161;-61
2023/07/07 00:42:16;;;;;;;5.82;4.43;;;;;;;14.99;69.18;101391.38;4986321;28;20529;-61
2023/07/07 00:45:05;;;;;;;8.60;5.45;;;;;;;14.97;69.54;101400.41;4988663;28;20053;-61
2023/07/07 00:47:33;;;;;;;9.57;5.05;;;;;;;14.93;69.82;101397.94;4991240;28;20602;-59
2023/07/07 00:50:01;;;;;;;7.20;4.65;;;;;;;14.91;69.69;101399.00;4974326;28;20046;-58
2023/07/07 00:52:28;;;;;;;9.65;4.72;;;;;;;14.88;69.98;101400.03;4986287;28;20090;-60
2023/07/07 00:54:56;;;;;;;9.50;4.65;;;;;;;14.86;69.90;101399.31;4974077;28;20058;-61
2023/07/07 00:57:23;;;;;;;10.55;4.95;;;;;;;14.86;69.31;101401.09;4999763;28;20122;-62
2023/07/07 00:59:50;;;;;;;6.43;4.43;;;;;;;14.85;69.39;101400.22;5007773;28;20046;-62
2023/07/07 01:02:26;;;;;;;9.32;5.97;;;;;;;14.85;68.79;101394.09;5004399;28;20140;-62
2023/07/07 01:04:55;;;;;;;8.40;4.95;;;;;;;14.85;69.08;101402.88;4999384;28;20089;-62
2023/07/07 01:07:33;;;;;;;8.82;4.90;;;;;;;14.85;69.31;101408.19;4987576;28;20444;-62
2023/07/07 01:10:00;;;;;;;10.43;4.93;;;;;;;14.82;69.83;101413.72;4983920;28;20092;-62
2023/07/07 01:12:27;;;;;;;11.15;5.35;;;;;;;14.78;70.62;101409.53;4986045;28;20088;-62
2023/07/07 01:14:54;;;;;;;8.88;4.90;;;;;;;14.74;70.89;101413.34;4989407;28;20050;-60
2023/07/07 01:17:40;;;;;;;9.50;5.30;;;;;;;14.68;71.44;101414.59;4979829;28;20071;-62
2023/07/07 01:20:27;;;;;;;10.52;5.40;;;;;;;14.65;70.90;101416.56;4983452;28;20046;-60
2023/07/07 01:23:15;;;;;;;9.88;5.65;;;;;;;14.63;70.53;101415.81;4985409;28;20485;-58
2023/07/07 01:25:57;;;;;;;10.73;6.28;;;;;;;14.63;71.08;101411.38;4981594;28;20474;-60
2023/07/07 01:28:42;;;;;;;11.00;6.15;;;;;;;14.61;71.01;101409.75;4981602;28;20626;-61
2023/07/07 01:31:43;;;;;;;8.33;5.70;;;;;;;14.60;71.70;101421.31;4983930;28;20138;-57
2023/07/07 01:34:13;;;;;;;7.70;5.30;;;;;;;14.57;71.64;101413.56;4953710;28;20596;-61
2023/07/07 01:36:40;;;;;;;8.95;4.97;;;;;;;14.55;71.84;101416.31;4957985;28;20054;-58
2023/07/07 01:39:10;;;;;;;8.02;5.65;;;;;;;14.54;72.03;101414.59;4983934;28;20141;-60
2023/07/07 01:41:50;;;;;;;6.70;4.90;;;;;;;14.52;72.31;101419.13;4990311;28;20138;-60
2023/07/07 01:44:32;;;;;;;12.18;5.97;;;;;;;14.49;72.39;101419.31;4990521;28;20132;-60
2023/07/07 01:47:08;;;;;;;8.55;6.13;;;;;;;14.46;72.97;101413.34;4983817;28;20404;-61
2023/07/07 01:49:46;;;;;;;10.00;6.10;;;;;;;14.41;73.26;101411.84;4980670;28;20058;-60
2023/07/07 01:52:22;;;;;;;9.43;5.03;;;;;;;14.39;73.74;101412.88;4994073;28;20068;-60
2023/07/07 01:55:20;;;;;;;9.32;5.68;;;;;;;14.37;73.87;101412.13;4983725;28;20046;-60
2023/07/07 01:57:51;;;;;;;9.38;5.70;;;;;;;14.35;73.93;101406.91;4981730;28;20133;-61
2023/07/07 02:00:20;;;;;;;8.38;5.95;;;;;;;14.34;74.20;101413.16;5000953;28;20078;-59
2023/07/07 02:02:47;;;;;;;11.20;5.88;;;;;;;14.34;73.84;101409.66;5013707;28;20064;-60
2023/07/07 02:05:14;;;;;;;9.77;5.95;;;;;;;14.31;74.25;101416.00;5014492;28;20046;-60
2023/07/07 02:07:42;;;;;;;10.02;5.35;;;;;;;14.30;74.45;101410.81;5008245;28;20054;-62
2023/07/07 02:10:10;;;;;;;6.90;5.45;;;;;;;14.27;74.80;101413.63;5011437;28;20128;-60
2023/07/07 02:12:38;;;;;;;11.18;6.13;;;;;;;14.25;74.63;101418.19;5020674;28;20136;-60
2023/07/07 02:15:06;;;;;;;7.28;5.45;;;;;;;14.22;74.81;101421.84;5014397;28;20458;-60
2023/07/07 02:17:33;;;;;;;9.77;5.93;;;;;;;14.19;75.03;101414.97;5006677;28;20506;-60
2023/07/07 02:20:01;;;;;;;8.60;4.90;;;;;;;14.15;75.36;101416.09;5011473;28;20053;-61
2023/07/07 02:22:28;;;;;;;10.20;5.00;;;;;;;14.13;75.19;101412.69;5017519;28;20144;-60
2023/07/07 02:24:55;;;;;;;11.75;5.57;;;;;;;14.12;75.10;101413.63;5006925;28;20140;-61
2023/07/07 02:27:22;;;;;;;8.00;5.00;;;;;;;14.10;75.20;101414.69;5005243;28;20475;-58
2023/07/07 02:29:50;;;;;;;9.43;5.38;;;;;;;14.08;75.62;101414.75;5013876;28;20521;-61
2023/07/07 02:32:17;;;;;;;7.88;5.07;;;;;;;14.07;76.02;101415.72;5009649;28;20072;-60
2023/07/07 02:34:47;;;;;;;8.57;5.28;;;;;;;14.03;75.97;101422.13;5015215;23;20508;-64
2023/07/07 02:37:18;;;;;;;9.48;5.07;;;;;;;14.00;75.80;101424.97;4988995;28;20048;-64
2023/07/07 02:39:46;;;;;;;8.40;5.43;;;;;;;13.97;75.70;101421.66;4998842;28;20054;-64
2023/07/07 02:42:14;;;;;;;7.93;5.15;;;;;;;13.96;75.87;101422.59;5003964;28;20053;-64
2023/07/07 02:44:42;;;;;;;7.35;5.65;;;;;;;13.93;75.81;101419.19;4999458;28;20446;-65
2023/07/07 02:47:10;;;;;;;8.35;5.47;;;;;;;13.93;76.02;101424.50;4986677;28;20082;-64
2023/07/07 02:49:37;;;;;;;8.57;5.45;;;;;;;13.91;76.32;101428.16;4977037;28;20105;-64
2023/07/07 02:52:05;;;;;;;7.75;5.63;;;;;;;13.88;76.05;101420.44;4978261;28;20066;-64
2023/07/07 02:54:33;;;;;;;10.43;5.95;;;;;;;13.86;76.57;101420.50;4983614;28;20084;-66
2023/07/07 02:57:02;;;;;;;8.32;4.90;;;;;;;13.86;76.61;101424.94;4985311;28;20043;-65
2023/07/07 02:59:29;;;;;;;11.25;6.00;;;;;;;13.84;76.83;101425.03;4983567;28;20137;-65
2023/07/07 03:01:56;;;;;;;10.82;5.50;;;;;;;13.84;76.83;101417.09;4982930;28;20050;-64
2023/07/07 03:04:24;;;;;;;13.23;5.75;;;;;;;13.85;76.66;101423.25;4978870;28;20043;-64
2023/07/07 03:06:52;;;;;;;7.15;5.35;;;;;;;13.85;77.17;101418.81;4978312;28;20058;-65
2023/07/07 03:09:19;;;;;;;7.70;5.70;;;;;;;13.86;76.81;101422.28;4985865;28;20141;-65
2023/07/07 03:11:47;;;;;;;9.80;5.65;;;;;;;13.88;76.56;101428.38;4985701;28;20113;-63
2023/07/07 03:14:17;;;;;;;7.40;5.05;;;;;;;13.90;76.85;101426.47;4984112;28;20141;-65
2023/07/07 03:16:51;;;;;;;10.18;5.28;;;;;;;13.92;76.34;101421.94;4978061;28;20058;-65
2023/07/07 03:19:19;;;;;;;8.63;4.45;;;;;;;13.94;76.45;101434.13;4982816;28;20133;-65
2023/07/07 03:21:47;;;;;;;8.25;5.40;;;;;;;13.98;76.13;101428.66;4979185;28;20054;-65
2023/07/07 03:24:14;;;;;;;7.65;4.50;;;;;;;14.00;76.16;101426.75;4985928;28;20375;-64
2023/07/07 03:26:42;;;;;;;8.98;4.82;;;;;;;14.01;76.30;101429.34;4980808;28;20054;-65
2023/07/07 03:29:10;;;;;;;6.50;4.25;;;;;;;14.05;75.74;101436.16;4987164;28;20138;-64
2023/07/07 03:31:38;;;;;;;8.55;4.90;;;;;;;14.07;75.87;101434.25;4980632;28;20082;-64
2023/07/07 03:34:07;;;;;;;5.65;4.65;;;;;;;14.11;75.36;101440.22;4987338;28;20149;-64
2023/07/07 03:36:35;;;;;;;11.20;4.78;;;;;;;14.13;75.41;101428.56;4983179;28;20146;-64
2023/07/07 03:39:03;;;;;;;9.43;4.75;;;;;;;14.16;75.49;101433.69;4983548;28;20057;-62
2023/07/07 03:41:30;;;;;;;5.88;3.97;;;;;;;14.21;75.53;101435.19;4977860;28;20054;-64
2023/07/07 03:43:58;;;;;;;6.05;4.50;;;;;;;14.22;75.66;101436.91;4985130;28;20054;-63
2023/07/07 03:46:27;;;;;;;9.15;4.75;;;;;;;14.25;75.42;101434.06;4985940;28;20137;-64
2023/07/07 03:48:55;;;;;;;6.68;4.20;;;;;;;14.28;75.09;101436.53;4982357;28;20055;-64
2023/07/07 03:51:24;;;;;;;7.68;4.35;;;;;;;14.33;74.95;101445.91;4977170;28;20085;-65
2023/07/07 03:53:51;;;;;;;6.78;4.60;;;;;;;14.37;75.02;101441.28;4979456;28;20148;-63
2023/07/07 03:56:19;;;;;;;7.90;4.95;;;;;;;14.40;75.17;101444.56;4986714;28;20125;-65
2023/07/07 03:58:47;;;;;;;7.05;4.30;;;;;;;14.45;74.89;101449.56;4994198;28;20058;-64
2023/07/07 04:01:15;;;;;;;8.23;4.22;;;;;;;14.49;75.10;101455.56;4991344;28;20089;-66
2023/07/07 04:03:44;;;;;;;9.00;4.72;;;;;;;14.52;74.80;101450.94;4987211;28;20249;-66
2023/07/07 04:06:17;;;;;;;9.40;4.57;;;;;;;14.59;74.39;101454.91;4977113;28;20061;-66
2023/07/07 04:08:45;;;;;;;14.75;4.88;;;;;;;14.66;73.98;101455.38;4985972;28;20085;-68
2023/07/07 04:11:15;;;;;;;5.97;4.18;;;;;;;14.73;73.72;101454.06;4991132;28;20108;-65
2023/07/07 04:13:47;;;;;;;5.60;4.57;;;;;;;14.80;73.43;101458.00;4988111;28;20323;-65
2023/07/07 04:16:20;;;;;;;8.57;4.35;;;;;;;14.87;73.16;101463.78;4988101;28;20050;-66
2023/07/07 04:18:53;;;;;;;8.70;4.40;;;;;;;14.93;72.66;101458.91;4966752;28;20554;-66
2023/07/07 04:21:25;;;;;;;6.80;4.97;;;;;;;15.00;72.42;101461.19;4986298;28;20039;-66
2023/07/07 04:23:53;;;;;;;7.03;4.97;;;;;;;15.07;72.10;101465.13;4986903;28;20074;-65
2023/07/07 04:26:22;;;;;;;7.72;4.78;;;;;;;15.14;71.84;101466.47;4982186;28;20562;-66
2023/07/07 04:28:53;;;;;;;7.30;4.85;;;;;;;15.22;71.36;101477.44;4985779;28;20087;-65
2023/07/07 04:31:23;;;;;;;6.60;4.45;;;;;;;15.29;71.04;101469.91;4976113;28;20160;-65
2023/07/07 04:33:52;;;;;;;7.25;4.55;;;;;;;15.34;70.82;101470.47;4976019;28;20056;-66
2023/07/07 04:36:20;;;;;;;6.90;4.32;;;;;;;15.43;70.32;101478.66;4975853;28;20169;-65
2023/07/07 04:38:48;;;;;;;8.88;4.72;;;;;;;15.50;69.86;101481.78;4982177;28;20455;-65
2023/07/07 04:41:22;;;;;;;5.60;3.90;;;;;;;15.58;68.78;101483.91;4982408;28;20058;-65
2023/07/07 04:43:51;;;;;;;6.07;4.00;;;;;;;15.64;67.93;101483.56;4975502;28;20046;-65
2023/07/07 04:46:34;;;;;;;7.38;3.55;;;;;;;15.72;67.67;101473.28;4973687;28;20047;-65
2023/07/07 04:49:06;;;;;;;7.47;4.85;;;;;;;15.79;66.98;101477.19;4980671;28;20081;-64
2023/07/07 04:51:35;;;;;;;6.60;3.47;;;;;;;15.87;66.63;101482.84;4977999;28;20146;-65
2023/07/07 04:54:03;;;;;;;8.75;3.97;;;;;;;15.95;66.20;101485.84;4985859;28;20081;-63
2023/07/07 04:56:33;;;;;;;6.68;3.72;;;;;;;16.01;65.63;101491.69;4977063;28;20133;-66
2023/07/07 04:59:00;;;;;;;7.55;3.38;;;;;;;16.07;64.31;101485.94;4981188;28;20073;-66
2023/07/07 05:01:29;;;;;;;4.22;2.70;;;;;;;16.14;63.72;101490.75;4972589;28;20146;-64
2023/07/07 05:04:01;;;;;;;6.07;3.40;;;;;;;16.25;63.60;101497.13;4982581;28;20050;-66
2023/07/07 05:06:31;;;;;;;6.47;3.58;;;;;;;16.29;63.22;101493.31;4977423;28;20058;-64
2023/07/07 05:09:00;;;;;;;10.73;3.47;;;;;;;16.34;62.65;101491.16;4983785;28;20125;-66
2023/07/07 05:11:29;;;;;;;6.65;3.33;;;;;;;16.44;62.53;101497.56;4980663;28;20062;-65
2023/07/07 05:13:56;;;;;;;5.97;3.60;;;;;;;16.57;62.23;101492.22;4979213;28;20134;-65
2023/07/07 05:16:26;;;;;;;15.10;3.70;;;;;;;16.64;61.42;101494.34;4978817;28;20080;-65
2023/07/07 05:18:54;;;;;;;10.73;3.25;;;;;;;16.71;61.02;101492.97;4985349;28;20047;-66
2023/07/07 05:21:22;;;;;;;6.18;3.15;;;;;;;16.80;61.02;101503.94;4979009;28;20088;-66
2023/07/07 05:23:53;;;;;;;9.18;3.20;;;;;;;16.90;60.71;101503.19;4994949;28;20050;-66
2023/07/07 05:26:22;;;;;;;6.40;3.22;;;;;;;16.98;60.49;101502.63;4976256;28;21027;-64
2023/07/07 05:28:52;;;;;;;8.40;3.78;;;;;;;17.07;60.61;101494.00;4988079;28;20153;-66
2023/07/07 05:31:20;;;;;;;8.18;3.60;;;;;;;17.17;60.46;101505.66;4993589;28;20085;-65
2023/07/07 05:33:47;;;;;;;5.00;3.60;;;;;;;17.26;60.20;101498.81;4983119;28;20138;-67
2023/07/07 05:36:15;;;;;;;11.77;3.15;;;;;;;17.37;59.70;101503.34;4982006;28;20042;-65
2023/07/07 05:38:42;;;;;;;8.63;2.85;;;;;;;17.48;59.40;101500.75;4985244;28;20063;-66
2023/07/07 05:41:10;;;;;;;4.95;3.17;;;;;;;17.58;59.14;101509.75;4980467;28;20061;-67
2023/07/07 05:43:37;;;;;;;7.70;3.53;;;;;;;17.66;57.44;101512.69;4985138;28;20082;-65
2023/07/07 05:46:08;;;;;;;7.90;3.13;;;;;;;17.77;57.85;101509.25;4967502;28;20047;-66
2023/07/07 05:48:36;;;;;;;5.78;2.95;;;;;;;17.91;57.46;101517.03;4985247;28;20054;-66
2023/07/07 05:51:05;;;;;;;3.47;2.45;;;;;;;18.00;56.01;101519.97;4974235;28;20066;-65
2023/07/07 05:53:34;;;;;;;10.25;2.63;;;;;;;18.06;55.71;101523.03;4982677;28;20428;-65
2023/07/07 05:56:06;;;;;;;5.60;2.50;;;;;;;18.12;54.61;101521.72;4990355;28;20069;-63
2023/07/07 05:58:34;;;;;;;8.32;2.88;;;;;;;18.24;54.62;101523.44;4988194;28;20055;-65
2023/07/07 06:01:02;;;;;;;5.65;2.75;;;;;;;18.37;54.60;101526.00;4980863;28;20129;-64
2023/07/07 06:03:30;;;;;;;9.05;2.42;;;;;;;18.45;53.82;101523.59;4987199;28;20084;-65
2023/07/07 06:05:57;;;;;;;5.75;3.00;;;;;;;18.56;54.04;101534.28;4986869;28;20153;-65
2023/07/07 06:08:25;;;;;;;3.50;2.05;;;;;;;18.68;53.95;101533.28;4980119;28;20680;-65
2023/07/07 06:10:52;;;;;;;9.27;2.58;;;;;;;18.78;53.44;101535.28;4986597;28;20138;-65
2023/07/07 06:13:23;;;;;;;4.75;2.67;;;;;;;18.89;52.43;101536.13;4983699;28;20073;-66
2023/07/07 06:15:52;;;;;;;5.72;2.33;;;;;;;18.97;52.11;101543.53;4979018;28;20062;-66
2023/07/07 06:18:21;;;;;;;3.33;2.28;;;;;;;19.05;51.94;101542.91;4976449;28;20090;-65
2023/07/07 06:20:49;;;;;;;4.38;2.40;;;;;;;19.18;52.10;101547.16;4980172;28;20130;-65
2023/07/07 06:23:17;;;;;;;6.60;2.55;;;;;;;19.27;51.45;101536.69;4980112;28;20149;-65
2023/07/07 06:25:44;;;;;;;4.50;2.83;;;;;;;19.38;51.37;101553.53;4975648;28;20133;-64
2023/07/07 06:28:11;;;;;;;6.07;2.50;;;;;;;19.51;51.01;101549.88;4982356;28;20157;-65
2023/07/07 06:30:39;;;;;;;5.53;2.60;;;;;;;19.64;50.98;101550.59;4999113;28;20081;-64
2023/07/07 06:33:06;;;;;;;6.35;2.70;;;;;;;19.74;50.40;101551.53;4974273;28;20054;-65
2023/07/07 06:35:33;;;;;;;9.10;3.55;;;;;;;19.75;49.71;101555.03;4982318;28;20169;-65
2023/07/07 06:38:01;;;;;;;5.78;2.35;;;;;;;19.85;49.91;101562.16;4978803;28;20078;-65
2023/07/07 06:40:29;;;;;;;8.93;2.72;;;;;;;19.83;49.43;101564.13;4981761;28;20054;-65
2023/07/07 06:42:58;;;;;;;10.77;2.70;;;;;;;19.87;49.63;101552.19;4973568;28;20610;-66
2023/07/07 06:45:25;;;;;;;6.85;2.78;;;;;;;19.99;49.29;101552.97;4977783;28;20457;-64
2023/07/07 06:47:53;;;;;;;5.80;3.00;;;;;;;20.08;49.08;101551.34;4980915;28;20383;-65
2023/07/07 06:50:26;;;;;;;5.97;2.20;;;;;;;20.17;48.43;101554.13;4977381;28;20070;-66
2023/07/07 06:52:54;;;;;;;3.92;2.20;;;;;;;20.30;47.57;101555.75;4978813;28;20131;-66
2023/07/07 06:55:21;;;;;;;6.85;2.70;;;;;;;20.42;48.25;101552.03;4979187;28;20470;-66
2023/07/07 06:57:49;;;;;;;10.35;2.92;;;;;;;20.55;48.79;101550.03;4978253;28;20053;-64
2023/07/07 07:00:17;;;;;;;4.63;2.25;;;;;;;20.73;48.51;101558.28;4983378;28;20069;-65
2023/07/07 07:02:44;;;;;;;5.10;2.88;;;;;;;20.87;48.14;101551.72;4983076;28;20073;-65
2023/07/07 07:05:12;;;;;;;3.15;2.17;;;;;;;20.96;47.96;101554.44;4977224;28;20137;-64
2023/07/07 07:07:39;;;;;;;6.55;2.65;;;;;;;21.06;47.63;101559.81;4978696;28;20084;-66
2023/07/07 07:17:29;;;;;;;2.65;1.83;;;;;;;21.23;44.62;101561.84;4977734;28;20049;-64
2023/07/07 07:19:58;;;;;;;7.05;2.35;;;;;;;21.27;45.12;101551.72;4983733;28;20511;-64
2023/07/07 07:22:25;;;;;;;5.38;2.03;;;;;;;21.43;45.19;101556.56;4979861;28;20133;-65
2023/07/07 07:24:53;;;;;;;4.68;1.83;;;;;;;21.57;44.70;101558.00;4977516;28;20055;-66
2023/07/07 07:27:20;;;;;;;5.07;2.17;;;;;;;21.63;44.17;101558.28;4979928;28;20461;-66
2023/07/07 07:29:47;;;;;;;7.43;2.13;;;;;;;21.77;43.71;101551.66;4980035;28;20131;-66
2023/07/07 07:32:14;;;;;;;4.88;2.60;;;;;;;21.88;43.99;101556.03;4980080;28;20115;-67
2023/07/07 07:34:41;;;;;;;6.55;1.98;;;;;;;22.00;43.61;101557.59;4983457;28;20058;-65
2023/07/07 07:37:09;;;;;;;3.58;1.77;;;;;;;22.06;42.58;101557.00;4981324;28;20554;-66
2023/07/07 07:39:36;;;;;;;2.72;1.67;;;;;;;22.18;43.01;101555.91;4984098;28;20050;-66
2023/07/07 07:42:04;;;;;;;6.32;1.95;;;;;;;22.29;42.45;101556.72;4977412;28;20061;-66
2023/07/07 07:44:31;;;;;;;5.55;1.70;;;;;;;22.39;42.18;101555.75;4979471;28;20668;-65
2023/07/07 07:46:59;;;;;;;5.03;1.70;;;;;;;22.39;41.01;101555.75;4988827;28;20050;-63
2023/07/07 07:49:27;;;;;;;6.07;1.77;;;;;;;22.42;40.38;101554.59;4980590;28;20487;-64
2023/07/07 07:51:55;;;;;;;1.98;1.42;;;;;;;22.48;39.65;101562.94;4985291;28;20054;-65
2023/07/07 07:54:23;;;;;;;6.97;1.83;;;;;;;22.50;39.66;101565.44;4983839;28;20088;-63
2023/07/07 07:56:51;;;;;;;4.60;1.60;;;;;;;22.52;39.99;101560.81;4982601;28;20177;-65
2023/07/07 07:59:18;;;;;;;6.90;1.77;;;;;;;22.46;38.67;101566.72;4985313;28;20054;-66
2023/07/07 08:01:46;;;;;;;6.88;1.90;;;;;;;22.52;39.76;101560.81;4981150;28;20134;-65
2023/07/07 08:04:13;;;;;;;5.60;1.98;;;;;;;22.71;40.14;101562.56;4984671;28;20529;-65
2023/07/07 08:06:41;;;;;;;6.40;1.92;;;;;;;22.81;39.84;101565.22;4980375;28;20105;-67
2023/07/07 08:09:11;;;;;;;5.15;1.77;;;;;;;22.84;38.82;101565.78;4982830;28;20213;-65
2023/07/07 08:11:41;;;;;;;4.75;1.98;;;;;;;22.87;39.35;101568.16;4983060;28;20057;-65
2023/07/07 08:14:16;;;;;;;3.85;1.55;;;;;;;22.95;37.93;101564.75;4980275;28;20050;-65
2023/07/07 08:16:45;;;;;;;5.85;1.90;;;;;;;22.99;37.92;101560.78;4979993;28;20514;-65
2023/07/07 08:19:13;;;;;;;7.50;1.95;;;;;;;23.11;37.91;101564.97;4980493;28;20046;-64
2023/07/07 08:21:46;;;;;;;10.40;1.88;;;;;;;23.19;37.82;101566.91;4986020;28;20050;-66
2023/07/07 08:24:13;;;;;;;3.05;1.58;;;;;;;23.26;37.84;101570.69;4983990;28;20133;-61
2023/07/07 08:26:41;;;;;;;3.10;1.50;;;;;;;23.41;37.76;101574.53;4993614;28;20062;-65
2023/07/07 08:29:09;;;;;;;4.93;1.98;;;;;;;23.47;37.95;101573.13;4980924;28;20054;-65
2023/07/07 08:31:51;;;;;;;4.10;1.83;;;;;;;23.63;38.25;101573.28;4970064;28;20085;-64
2023/07/07 08:34:19;;;;;;;4.43;1.95;;;;;;;23.79;38.00;101567.25;4982449;28;20495;-64
2023/07/07 08:36:47;;;;;;;3.22;1.77;;;;;;;23.90;37.48;101571.53;4981410;28;20180;-64
2023/07/07 08:39:17;;;;;;;6.38;1.80;;;;;;;23.91;36.67;101571.41;4979877;28;20129;-65
2023/07/07 08:41:58;;;;;;;5.50;1.70;;;;;;;24.00;36.30;101572.31;4981359;28;20054;-66
2023/07/07 08:44:26;;;;;;;4.25;1.60;;;;;;;24.00;35.97;101570.47;4981074;28;20062;-66
2023/07/07 08:47:02;;;;;;;5.35;1.83;;;;;;;24.02;35.72;101575.69;4980365;28;20145;-66
2023/07/07 08:50:01;;;;;;;3.60;1.98;;;;;;;23.95;36.26;101569.22;4983538;28;20831;-64
2023/07/07 08:52:40;;;;;;;3.70;1.73;;;;;;;24.02;34.43;101581.06;4976735;28;20563;-64
2023/07/07 08:55:35;;;;;;;3.70;1.40;;;;;;;23.98;34.93;101577.00;4980032;28;20129;-66
2023/07/07 08:58:08;;;;;;;5.05;1.75;;;;;;;23.94;34.82;101571.09;4978772;28;20074;-64
2023/07/07 09:00:59;;;;;;;5.45;1.42;;;;;;;24.00;35.31;101570.47;4982338;28;20132;-65
2023/07/07 09:03:57;;;;;;;4.43;1.50;;;;;;;24.25;35.96;101578.75;4988560;28;20042;-66
2023/07/07 09:06:45;;;;;;;3.75;1.52;;;;;;;24.46;35.55;101570.34;4980045;28;20058;-64
2023/07/07 09:09:39;;;;;;;4.15;2.17;;;;;;;24.50;34.81;101574.44;4978896;28;20443;-64
2023/07/07 09:12:16;;;;;;;2.33;1.50;;;;;;;24.55;35.06;101572.09;4984573;28;21179;-65
2023/07/07 09:14:45;;;;;;;5.78;1.40;;;;;;;24.30;33.31;101573.72;5007232;28;20161;-64
2023/07/07 09:17:27;;;;;;;4.45;1.40;;;;;;;24.33;33.24;101578.81;4964609;28;20062;-64
2023/07/07 09:19:59;;;;;;;3.67;1.50;;;;;;;24.43;32.79;101578.75;4971831;28;20136;-66
2023/07/07 09:22:30;;;;;;;10.38;1.83;;;;;;;24.42;33.36;101579.75;4973774;28;20795;-65
2023/07/07 09:25:04;;;;;;;11.52;1.77;;;;;;;24.64;33.43;101573.00;4980214;28;20073;-66
2023/07/07 09:27:40;;;;;;;9.68;1.98;;;;;;;24.74;33.15;101574.56;4977791;28;20065;-65
2023/07/07 09:30:39;;;;;;;5.78;1.50;;;;;;;24.74;31.89;101571.03;4981661;28;20055;-66
2023/07/07 09:33:11;;;;;;;2.45;1.42;;;;;;;24.73;30.93;101567.50;4969430;28;20046;-65
2023/07/07 09:35:41;;;;;;;6.13;1.70;;;;;;;24.78;32.28;101583.16;4980889;28;20154;-63
2023/07/07 09:38:29;;;;;;;2.25;1.15;;;;;;;24.74;31.79;101577.25;4969474;28;20058;-63
2023/07/07 09:41:28;;;;;;;6.63;1.60;;;;;;;24.85;32.75;101578.81;4981060;28;20141;-65
2023/07/07 09:44:08;;;;;;;2.75;1.48;;;;;;;25.02;32.30;101566.28;4980211;28;20046;-67
2023/07/07 09:47:20;;;;;;;5.60;1.50;;;;;;;25.25;32.44;101559.31;4975020;28;20507;-65
2023/07/07 09:50:03;;;;;;;4.15;1.33;;;;;;;25.42;32.50;101559.38;5020391;23;20118;-55
2023/07/07 09:52:39;;;;;;;2.45;1.60;;;;;;;25.51;32.89;101561.91;5019481;28;20576;-56
2023/07/07 09:55:14;;;;;;;2.15;1.60;;;;;;;25.70;32.76;101557.22;5017844;28;20054;-51
2023/07/07 09:57:47;;;;;;;5.00;1.65;;;;;;;25.83;32.75;101559.47;5003758;28;20085;-54
2023/07/07 10:00:17;;;;;;;2.47;1.63;;;;;;;25.94;32.93;101553.75;5019462;28;20053;-55
2023/07/07 10:02:51;;;;;;;2.67;1.27;;;;;;;26.09;33.17;101552.06;5019250;28;20084;-52
2023/07/07 10:05:24;;;;;;;4.63;1.63;;;;;;;26.06;31.08;101552.38;5019587;28;20075;-54
2023/07/07 10:07:52;;;;;;;3.47;1.50;;;;;;;25.78;31.06;101554.56;5019833;28;20049;-53
2023/07/07 10:10:19;;;;;;;7.20;1.98;;;;;;;25.79;30.58;101550.03;5020314;28;20052;-56
2023/07/07 10:12:47;;;;;;;2.25;1.17;;;;;;;25.58;30.62;101540.53;5013962;28;20084;-57
2023/07/07 10:15:50;;;;;;;2.42;1.23;;;;;;;25.72;30.80;101541.75;5036292;28;20496;-56
2023/07/07 10:18:23;;;;;;;8.10;1.88;;;;;;;25.85;30.28;101541.25;5007005;28;20057;-54
2023/07/07 10:20:51;;;;;;;4.68;1.60;;;;;;;25.89;30.87;101540.78;5020913;28;20417;-56
2023/07/07 10:23:19;;;;;;;3.08;1.60;;;;;;;26.05;32.45;101549.88;5020253;28;20591;-54
2023/07/07 10:25:46;;;;;;;3.42;1.60;;;;;;;26.21;30.20;101549.88;5016669;28;20140;-55
2023/07/07 10:28:16;;;;;;;2.10;1.40;;;;;;;26.03;30.12;101544.66;5019539;28;20065;-54
2023/07/07 10:30:45;;;;;;;1.92;1.20;;;;;;;26.09;30.53;101540.41;5022511;28;20054;-53
2023/07/07 10:33:16;;;;;;;3.78;1.30;;;;;;;26.20;30.58;101538.19;5021996;28;20082;-57
2023/07/07 10:35:43;;;;;;;4.57;1.20;;;;;;;26.30;30.28;101539.88;5023582;28;20049;-53
2023/07/07 10:38:11;;;;;;;3.35;1.30;;;;;;;26.16;29.62;101534.19;5022100;28;20144;-55
2023/07/07 10:40:41;;;;;;;2.08;1.30;;;;;;;26.21;30.34;101536.38;5013771;28;20072;-55
2023/07/07 10:43:13;;;;;;;2.13;1.38;;;;;;;26.35;29.65;101530.28;5022591;28;20413;-52
2023/07/07 10:45:45;;;;;;;4.50;1.70;;;;;;;26.46;29.67;101534.47;5021763;28;20290;-57
2023/07/07 10:48:13;;;;;;;2.50;1.27;;;;;;;26.38;29.22;101529.06;5017691;28;20053;-55
2023/07/07 10:50:59;;;;;;;2.55;1.40;;;;;;;26.59;29.69;101528.56;5015457;28;20104;-56
2023/07/07 10:53:39;;;;;;;2.50;1.42;;;;;;;26.85;29.83;101528.28;5021802;28;20644;-53
2023/07/07 10:56:16;;;;;;;3.53;1.60;;;;;;;26.89;29.64;101518.81;5021028;28;20129;-56
2023/07/07 10:59:10;;;;;;;5.78;1.88;;;;;;;26.80;28.75;101534.22;5020301;28;20607;-56
2023/07/07 11:02:01;;;;;;;3.03;1.35;;;;;;;26.51;27.94;101534.81;5016979;28;20213;-55
2023/07/07 11:05:07;;;;;;;3.38;1.40;;;;;;;26.47;27.91;101530.75;5020416;28;20065;-55
2023/07/07 11:07:51;;;;;;;3.03;1.38;;;;;;;26.49;28.54;101531.44;5010802;28;20057;-55
2023/07/07 11:10:54;;;;;;;4.05;1.52;;;;;;;26.57;28.17;101527.88;5020731;28;20144;-53
2023/07/07 11:13:58;;;;;;;4.50;1.60;;;;;;;26.61;28.32;101524.66;5024220;28;20129;-54
2023/07/07 11:16:50;;;;;;;2.78;1.15;;;;;;;26.97;28.54;101516.94;5017597;28;20070;-58
2023/07/07 11:19:58;;;;;;;2.40;1.20;;;;;;;27.39;28.75;101522.97;5026400;28;20095;-56
2023/07/07 11:22:41;;;;;;;2.10;1.27;;;;;;;27.67;28.11;101523.28;5026620;28;20152;-56
2023/07/07 11:25:22;;;;;;;2.30;1.40;;;;;;;27.68;27.26;101517.69;5025037;28;20057;-55
2023/07/07 11:28:03;;;;;;;2.50;1.55;;;;;;;27.62;27.53;101520.28;5021861;28;20045;-55
2023/07/07 11:30:56;;;;;;;6.18;3.78;;;;;;;27.80;27.57;101520.84;5021546;28;20075;-54
2023/07/07 11:33:35;;;;;;;2.65;1.80;;;;;;;27.72;26.64;101518.19;5000994;28;20136;-54
2023/07/07 11:36:19;;;;;;;3.33;1.80;;;;;;;27.66;28.17;101508.91;5018990;28;20061;-56
2023/07/07 11:38:57;;;;;;;4.65;1.98;;;;;;;27.75;28.19;101515.13;5017699;28;20057;-57
2023/07/07 11:42:05;;;;;;;5.03;1.70;;;;;;;27.62;26.99;101509.47;5018437;28;20080;-54
2023/07/07 11:45:10;;;;;;;6.20;1.83;;;;;;;27.82;27.11;101513.38;5018587;28;20057;-53
2023/07/07 11:47:49;;;;;;;4.20;1.80;;;;;;;28.06;27.64;101508.78;5023608;28;20673;-55
2023/07/07 11:50:17;;;;;;;3.05;1.45;;;;;;;28.21;27.31;101505.06;5021476;28;20162;-54
2023/07/07 11:53:05;;;;;;;3.13;1.48;;;;;;;28.56;27.11;101504.56;5015992;28;20544;-51
2023/07/07 11:55:52;;;;;;;12.25;5.10;;;;;;;28.76;27.14;101495.66;5022791;28;20132;-56